Leusden, Netherlands
Current Conditions -  °F | °C
As of 1:25 PM on Friday 24 Oct 2014 (Local Time) from EHDL Reporting Station
Drizzle Drizzle  
Wind Chill: 52°   Ceiling: 2900
Heat Index: 52°   Visibility: 6mi
Dew Point: 50°   Wind: 10mph
Humidity: 94%   Direction: 170°S
Pressure: 30.09"   Gusts: NA
Location:  52.13°N, 5.43°E
Report Text: EHDL 241125Z AUTO 17009KT 9000 -DZ FEW012 BKN029 OVC033 11/10 Q1019 REDZ BLU
Loading
Personal Weather Stations






























Interactive Weather Map
Tropical Storm Tracking
New forecast layout! Learn more

10-Day Weather Forecast

Advertisements
Track Severe Weather on mobile